Time;durP1;ratioP1;P1;durP2;ratioP2;P2;SDS_P1;SDS_P2;PMS_P1;PMS_P2;Temp;Humidity;BMP_temperature;BMP_pressure;BME280_temperature;BME280_humidity;BME280_pressure;Samples;Min_cycle;Max_cycle;Signal;HPM_P1;HPM_P2
2023/03/27 00:01:14;;;;;;;25.00;14.50;;;;;;;6.00;71.18;98599.70;103284;1255;96434;-64
2023/03/27 00:03:41;;;;;;;23.90;14.80;;;;;;;5.95;71.26;98599.70;103177;1254;137828;-64
2023/03/27 00:06:15;;;;;;;26.20;16.50;;;;;;;5.92;71.26;98598.11;103212;1254;108523;-64
2023/03/27 00:08:42;;;;;;;25.40;15.10;;;;;;;5.87;71.32;98593.60;103315;1254;138500;-64
2023/03/27 00:11:12;;;;;;;25.20;15.30;;;;;;;5.83;71.53;98589.27;103758;1254;108068;-64
2023/03/27 00:13:40;;;;;;;25.60;16.40;;;;;;;5.84;71.56;98588.91;103253;1254;96436;-64
2023/03/27 00:16:17;;;;;;;29.30;16.50;;;;;;;5.82;71.49;98584.67;103831;1254;137964;-64
2023/03/27 00:18:45;;;;;;;24.20;15.30;;;;;;;5.78;71.62;98585.02;103253;1254;108517;-64
2023/03/27 00:21:12;;;;;;;25.10;16.10;;;;;;;5.75;71.70;98584.27;103726;1254;138208;-64
2023/03/27 00:23:44;;;;;;;27.40;16.70;;;;;;;5.72;71.64;98584.70;103253;1258;108232;-64
2023/03/27 00:26:12;;;;;;;26.20;16.40;;;;;;;5.70;71.73;98581.86;103233;1254;96451;-64
2023/03/27 00:28:39;;;;;;;26.80;16.20;;;;;;;5.68;71.88;98576.95;103221;1254;137820;-63
2023/03/27 00:31:11;;;;;;;25.30;16.40;;;;;;;5.66;71.95;98574.44;103304;1253;108463;-64
2023/03/27 00:33:39;;;;;;;26.60;16.60;;;;;;;5.65;71.99;98575.00;103845;1254;138118;-64
2023/03/27 00:36:09;;;;;;;26.00;16.60;;;;;;;5.63;72.12;98572.47;103286;1254;107370;-63
2023/03/27 00:38:38;;;;;;;27.80;17.10;;;;;;;5.62;72.07;98571.16;103932;1254;138405;-65
2023/03/27 00:41:07;;;;;;;26.30;17.00;;;;;;;5.59;72.05;98561.61;103311;1255;111109;-63
2023/03/27 00:43:41;;;;;;;30.10;17.90;;;;;;;5.57;72.20;98562.55;103673;1256;107653;-63
2023/03/27 00:46:21;;;;;;;27.10;17.10;;;;;;;5.54;72.48;98561.60;103147;1257;138094;-64
2023/03/27 00:48:52;;;;;;;27.60;17.20;;;;;;;5.50;72.42;98560.73;103207;1258;108075;-64
2023/03/27 00:51:21;;;;;;;27.90;18.10;;;;;;;5.45;72.35;98557.66;103110;1254;138132;-64
2023/03/27 00:53:51;;;;;;;25.90;17.60;;;;;;;5.42;72.59;98555.89;103279;1258;109861;-64
2023/03/27 00:56:20;;;;;;;30.50;18.10;;;;;;;5.38;72.72;98555.66;103253;1254;108140;-64
2023/03/27 00:58:54;;;;;;;31.00;18.50;;;;;;;5.34;72.61;98551.87;103193;1258;137803;-64
2023/03/27 01:01:27;;;;;;;27.10;17.10;;;;;;;5.29;72.84;98545.52;103243;1254;108325;-66
2023/03/27 01:04:01;;;;;;;29.00;17.00;;;;;;;5.24;73.21;98543.48;103960;1258;138762;-64
2023/03/27 01:06:31;;;;;;;26.00;16.60;;;;;;;5.20;73.33;98539.67;103471;1254;110924;-64
2023/03/27 01:09:03;;;;;;;25.20;16.50;;;;;;;5.13;73.41;98541.96;103168;1253;138176;-64
2023/03/27 01:11:51;;;;;;;25.60;16.70;;;;;;;5.08;73.46;98540.61;103313;1254;96477;-64
2023/03/27 01:14:30;;;;;;;24.70;16.30;;;;;;;5.04;73.88;98551.45;103329;1253;109357;-64
2023/03/27 01:17:11;;;;;;;26.90;16.70;;;;;;;5.02;73.88;98551.54;103274;1257;96547;-63
2023/03/27 01:20:13;;;;;;;24.30;16.60;;;;;;;4.99;73.73;98551.83;103304;1258;110019;-63
2023/03/27 01:23:10;;;;;;;24.30;15.80;;;;;;;4.95;74.04;98555.92;103305;1254;138047;-64
2023/03/27 01:25:54;;;;;;;25.70;15.30;;;;;;;4.91;74.28;98565.19;104218;1258;94863;-65
2023/03/27 01:28:42;;;;;;;25.20;16.50;;;;;;;4.87;74.13;98565.67;104030;1258;137795;-64
2023/03/27 01:31:25;;;;;;;23.50;15.30;;;;;;;4.84;74.32;98561.30;103200;1261;96473;-66
2023/03/27 01:34:14;;;;;;;27.20;16.60;;;;;;;4.81;74.28;98556.75;102948;1257;138039;-64
2023/03/27 01:37:21;;;;;;;24.60;16.20;;;;;;;4.79;74.38;98556.30;103012;1257;107956;-64
2023/03/27 01:39:53;;;;;;;22.10;15.20;;;;;;;4.75;74.59;98556.10;102510;1263;138360;-64
2023/03/27 01:42:25;;;;;;;24.00;15.50;;;;;;;4.73;74.87;98558.09;102704;1267;108374;-64
2023/03/27 01:45:02;;;;;;;23.20;14.30;;;;;;;4.72;74.96;98560.36;102769;1267;138207;-65
2023/03/27 01:47:40;;;;;;;26.10;15.20;;;;;;;4.69;74.93;98562.89;103433;1264;109977;-64
2023/03/27 01:50:15;;;;;;;20.70;13.60;;;;;;;4.66;75.29;98570.71;102600;1263;108187;-64
2023/03/27 01:52:47;;;;;;;25.70;15.10;;;;;;;4.64;75.20;98575.27;103765;1264;138425;-64
2023/03/27 01:55:19;;;;;;;20.90;13.30;;;;;;;4.63;75.36;98580.27;102608;1266;108483;-64
2023/03/27 01:57:52;;;;;;;22.40;14.30;;;;;;;4.63;75.33;98583.04;102496;1267;138170;-64
2023/03/27 02:00:22;;;;;;;20.10;14.10;;;;;;;4.62;75.57;98585.30;102589;1267;112081;-64
2023/03/27 02:02:53;;;;;;;24.40;15.30;;;;;;;4.61;75.83;98586.04;102652;1264;139587;-65
2023/03/27 02:05:23;;;;;;;25.00;15.20;;;;;;;4.60;75.58;98586.44;103306;1260;96540;-63
2023/03/27 02:07:57;;;;;;;22.30;15.70;;;;;;;4.59;75.85;98589.23;103498;1260;107978;-63
2023/03/27 02:10:29;;;;;;;23.70;15.30;;;;;;;4.57;75.93;98582.41;102769;1261;138192;-63
2023/03/27 02:13:01;;;;;;;23.70;14.70;;;;;;;4.55;75.97;98577.48;103088;1264;109019;-63
2023/03/27 02:15:33;;;;;;;20.90;14.40;;;;;;;4.55;76.31;98574.90;102614;1261;138212;-63
2023/03/27 02:18:04;;;;;;;24.10;15.20;;;;;;;4.53;76.18;98578.91;103115;1254;96458;-63
2023/03/27 02:20:34;;;;;;;26.70;16.00;;;;;;;4.52;76.10;98580.02;103158;1256;108140;-64
2023/03/27 02:23:12;;;;;;;24.20;15.90;;;;;;;4.49;76.02;98579.91;103134;1258;96470;-64
2023/03/27 02:25:41;;;;;;;23.20;15.40;;;;;;;4.49;76.25;98579.26;103215;1256;110440;-64
2023/03/27 02:28:28;;;;;;;23.80;15.20;;;;;;;4.48;76.20;98576.01;103042;1254;138315;-64
2023/03/27 02:31:06;;;;;;;22.90;14.80;;;;;;;4.46;76.28;98573.65;103296;1254;96454;-63
2023/03/27 02:34:12;;;;;;;24.50;15.30;;;;;;;4.45;76.50;98575.75;102972;1258;137952;-63
2023/03/27 02:36:52;;;;;;;22.30;15.00;;;;;;;4.42;76.46;98579.45;103150;1255;96464;-64
2023/03/27 02:39:29;;;;;;;23.50;15.20;;;;;;;4.40;76.55;98584.02;103007;1256;137944;-64
2023/03/27 02:42:03;;;;;;;25.70;15.50;;;;;;;4.38;76.94;98586.65;103901;1258;108843;-64
2023/03/27 02:44:35;;;;;;;;;;;;;;;4.39;76.85;98586.30;103154;1260;96446;-64
2023/03/27 02:47:17;;;;;;;22.80;15.30;;;;;;;4.38;76.82;98584.08;103094;1255;108148;-64
2023/03/27 02:49:50;;;;;;;24.80;15.00;;;;;;;4.39;77.00;98584.23;103011;1257;97195;-64
2023/03/27 02:52:24;;;;;;;21.40;14.90;;;;;;;4.37;76.88;98583.43;103087;1255;137917;-64
2023/03/27 02:54:56;;;;;;;25.40;17.00;;;;;;;4.37;77.06;98580.52;103460;1258;107666;-64
2023/03/27 02:57:30;;;;;;;24.70;16.00;;;;;;;4.36;77.24;98573.50;103108;1254;137968;-64
2023/03/27 03:00:24;;;;;;;24.00;15.20;;;;;;;4.35;77.31;98571.46;101602;1256;1003508;-65
2023/03/27 03:03:07;;;;;;;24.40;15.90;;;;;;;4.33;77.09;98571.54;103037;1254;138411;-65
2023/03/27 03:05:36;;;;;;;25.40;15.00;;;;;;;4.31;77.05;98572.97;103431;1254;109014;-64
2023/03/27 03:08:08;;;;;;;25.10;15.30;;;;;;;4.30;77.54;98574.90;103180;1255;107737;-65
2023/03/27 03:10:42;;;;;;;25.80;15.60;;;;;;;4.27;77.55;98576.89;104365;1254;138783;-65
2023/03/27 03:13:11;;;;;;;26.20;16.20;;;;;;;4.28;77.77;98582.19;103942;1258;106275;-65
2023/03/27 03:15:41;;;;;;;25.90;15.80;;;;;;;4.27;77.36;98588.06;103159;1254;137985;-64
2023/03/27 03:18:08;;;;;;;25.30;16.30;;;;;;;4.23;77.17;98584.73;103161;1260;108630;-64
2023/03/27 03:20:36;;;;;;;26.20;16.10;;;;;;;4.18;77.15;98585.95;103125;1254;108200;-64
2023/03/27 03:23:03;;;;;;;27.30;16.10;;;;;;;4.12;77.28;98586.47;103161;1259;96942;-64
2023/03/27 03:25:33;;;;;;;29.00;18.40;;;;;;;4.08;77.32;98584.20;102939;1255;332278;-65
2023/03/27 03:28:00;;;;;;;26.00;17.70;;;;;;;4.04;77.26;98582.46;103028;1255;138028;-65
2023/03/27 03:30:30;;;;;;;25.30;17.20;;;;;;;4.01;77.45;98585.65;103138;1255;110915;-64
2023/03/27 03:33:04;;;;;;;29.30;18.20;;;;;;;4.00;77.65;98581.23;102973;1255;138238;-64
2023/03/27 03:35:35;;;;;;;26.60;18.00;;;;;;;3.97;77.34;98579.41;103188;1255;96432;-64
2023/03/27 03:38:08;;;;;;;30.50;18.10;;;;;;;3.96;77.69;98584.27;103090;1260;107836;-64
2023/03/27 03:40:43;;;;;;;27.50;18.00;;;;;;;3.93;77.81;98583.48;103830;1255;137988;-65
2023/03/27 03:43:10;;;;;;;28.40;17.00;;;;;;;3.92;77.74;98581.46;102370;1255;1003567;-64
2023/03/27 03:45:37;;;;;;;26.90;18.10;;;;;;;3.91;77.96;98586.63;102961;1256;138541;-64
2023/03/27 03:48:05;;;;;;;29.10;17.80;;;;;;;3.91;78.00;98586.99;103149;1257;96343;-63
2023/03/27 03:50:36;;;;;;;25.00;17.40;;;;;;;3.91;78.41;98589.72;103097;1260;108160;-63
2023/03/27 03:53:03;;;;;;;28.90;18.00;;;;;;;3.94;78.34;98594.81;103148;1257;96752;-64
2023/03/27 03:55:33;;;;;;;25.70;17.70;;;;;;;3.95;78.55;98590.66;103222;1255;110325;-64
2023/03/27 03:58:04;;;;;;;28.50;18.40;;;;;;;3.97;78.59;98593.17;103118;1254;138201;-65
2023/03/27 04:00:37;;;;;;;29.10;17.60;;;;;;;4.00;78.75;98599.45;103112;1260;96442;-65
2023/03/27 04:03:09;;;;;;;28.90;17.90;;;;;;;4.04;79.03;98602.92;103122;1258;137999;-65
2023/03/27 04:05:38;;;;;;;29.70;19.30;;;;;;;4.08;79.18;98599.52;100916;1254;1003454;-65
2023/03/27 04:08:06;;;;;;;28.40;17.80;;;;;;;4.11;79.16;98593.55;103189;1254;109645;-64
2023/03/27 04:10:49;;;;;;;26.90;17.70;;;;;;;4.16;79.20;98591.36;103430;1254;138082;-64
2023/03/27 04:13:37;;;;;;;26.70;17.30;;;;;;;4.22;79.20;98597.36;103311;1254;96460;-64
2023/03/27 04:16:13;;;;;;;30.90;18.50;;;;;;;4.26;79.24;98602.90;103507;1256;137830;-65
2023/03/27 04:18:49;;;;;;;29.40;18.80;;;;;;;4.31;79.30;98604.13;103456;1254;96380;-65
2023/03/27 04:21:28;;;;;;;25.20;17.30;;;;;;;4.35;79.16;98603.48;103148;1255;137826;-65
2023/03/27 04:24:17;;;;;;;30.70;20.40;;;;;;;4.38;79.10;98608.86;103223;1258;107622;-64
2023/03/27 04:26:46;;;;;;;28.60;18.50;;;;;;;4.41;79.04;98608.09;103185;1258;138226;-65
2023/03/27 04:29:42;;;;;;;30.80;18.70;;;;;;;4.44;79.04;98606.59;103259;1258;107583;-65
2023/03/27 04:32:42;;;;;;;27.30;18.00;;;;;;;4.47;78.99;98604.08;104589;1254;94241;-65
2023/03/27 04:35:28;;;;;;;27.00;18.00;;;;;;;4.48;78.97;98608.69;103870;1254;108020;-66
2023/03/27 04:38:17;;;;;;;29.20;17.80;;;;;;;4.49;79.20;98611.95;103165;1254;108238;-65
2023/03/27 04:40:51;;;;;;;25.10;18.30;;;;;;;4.50;79.06;98611.92;103387;1259;138160;-65
2023/03/27 04:43:19;;;;;;;31.00;19.80;;;;;;;4.52;79.14;98616.13;103077;1255;105852;-65
2023/03/27 04:45:49;;;;;;;29.30;18.70;;;;;;;4.55;79.20;98615.02;103513;1258;137997;-66
2023/03/27 04:48:17;;;;;;;25.60;17.90;;;;;;;4.57;79.06;98618.89;103223;1258;110257;-67
2023/03/27 04:50:49;;;;;;;27.40;18.70;;;;;;;4.58;78.87;98624.54;103001;1256;138174;-63
2023/03/27 04:53:29;;;;;;;28.40;18.70;;;;;;;4.57;78.84;98627.50;103307;1254;96650;-65
2023/03/27 04:55:57;;;;;;;29.50;18.30;;;;;;;4.57;78.77;98629.75;103348;1254;108990;-65
2023/03/27 04:58:28;;;;;;;26.30;16.70;;;;;;;4.59;78.63;98637.24;103113;1254;138219;-65
2023/03/27 05:00:56;;;;;;;26.50;16.70;;;;;;;4.61;78.75;98633.71;103183;1254;110879;-65
2023/03/27 05:03:53;;;;;;;24.70;17.60;;;;;;;4.67;78.54;98635.07;103305;1258;138184;-64
2023/03/27 05:06:44;;;;;;;25.40;16.80;;;;;;;4.81;78.58;98639.23;103090;1254;96463;-67
2023/03/27 05:09:14;;;;;;;28.40;17.10;;;;;;;4.99;78.39;98633.81;103130;1254;138537;-65
2023/03/27 05:11:43;;;;;;;22.80;15.80;;;;;;;5.44;78.42;98633.55;103170;1255;96675;-64
2023/03/27 05:14:15;;;;;;;22.50;15.10;;;;;;;5.85;77.62;98636.30;103701;1255;111124;-62
2023/03/27 05:16:42;;;;;;;22.10;14.70;;;;;;;6.22;77.09;98631.06;103154;1258;137980;-64
2023/03/27 05:19:10;;;;;;;24.80;14.70;;;;;;;6.39;76.16;98636.59;103077;1260;96388;-64
2023/03/27 05:21:47;;;;;;;20.90;14.20;;;;;;;6.37;75.55;98635.65;103040;1255;137955;-64
2023/03/27 05:24:15;;;;;;;21.90;15.10;;;;;;;6.35;75.46;98634.86;103216;1258;96436;-64
2023/03/27 05:26:43;;;;;;;25.00;15.20;;;;;;;6.35;75.24;98633.10;103225;1258;110672;-65
2023/03/27 05:29:10;;;;;;;20.20;14.10;;;;;;;6.28;75.06;98636.36;103135;1258;107983;-65
2023/03/27 05:31:40;;;;;;;21.60;15.30;;;;;;;6.16;75.02;98638.56;103092;1255;96550;-63
2023/03/27 05:34:44;;;;;;;23.20;14.80;;;;;;;6.04;75.23;98640.05;102831;1258;138081;-64
2023/03/27 05:37:15;;;;;;;21.60;14.60;;;;;;;6.01;75.52;98640.52;103143;1255;97992;-65
2023/03/27 05:40:10;;;;;;;22.30;14.50;;;;;;;6.01;75.57;98647.25;103077;1256;137914;-66
2023/03/27 05:42:41;;;;;;;21.40;14.50;;;;;;;6.01;75.53;98647.41;103528;1255;107407;-64
2023/03/27 05:45:10;;;;;;;21.10;13.20;;;;;;;6.00;75.26;98649.19;103036;1255;138911;-64
2023/03/27 05:47:46;;;;;;;20.90;13.00;;;;;;;5.97;75.37;98649.64;103582;1256;108041;-65
2023/03/27 05:50:15;;;;;;;21.10;14.30;;;;;;;5.92;75.33;98655.01;103049;1258;1002479;-64
2023/03/27 05:52:43;;;;;;;21.40;13.60;;;;;;;5.90;75.40;98658.89;103023;1260;138421;-64
2023/03/27 05:55:12;;;;;;;20.90;13.20;;;;;;;5.89;75.61;98666.84;103163;1257;107869;-64
2023/03/27 05:57:41;;;;;;;19.60;13.50;;;;;;;5.89;75.55;98668.73;103322;1255;138068;-64
2023/03/27 06:00:14;;;;;;;20.50;13.60;;;;;;;5.87;75.36;98671.73;103213;1256;108629;-63
2023/03/27 06:02:43;;;;;;;19.00;12.40;;;;;;;5.88;75.56;98672.23;103488;1256;96560;-63
2023/03/27 06:05:14;;;;;;;17.70;12.50;;;;;;;5.86;75.60;98674.21;104459;1254;108597;-64
2023/03/27 06:07:46;;;;;;;21.20;12.40;;;;;;;5.85;75.78;98673.20;103093;1254;107154;-64
2023/03/27 06:10:17;;;;;;;20.10;11.70;;;;;;;5.83;75.59;98671.39;103022;1255;138750;-63
2023/03/27 06:13:13;;;;;;;20.90;12.20;;;;;;;5.80;75.62;98678.23;103055;1255;108005;-64
2023/03/27 06:15:53;;;;;;;18.50;11.80;;;;;;;5.79;75.51;98677.42;103070;1256;138018;-65
2023/03/27 06:18:35;;;;;;;;;;;;;;;5.75;75.53;98679.64;104493;1255;110308;-64
2023/03/27 06:21:03;;;;;;;18.00;11.30;;;;;;;5.78;75.66;98681.77;103226;1259;124282;-63
2023/03/27 06:23:30;;;;;;;17.40;10.70;;;;;;;5.85;75.57;98682.88;103145;1258;96609;-64
2023/03/27 06:25:58;;;;;;;17.50;11.10;;;;;;;5.91;75.28;98687.13;103085;1260;108597;-64
2023/03/27 06:28:28;;;;;;;19.10;11.00;;;;;;;5.95;75.38;98689.41;103009;1255;138086;-66
2023/03/27 06:30:56;;;;;;;15.70;10.90;;;;;;;5.97;74.99;98690.54;103117;1258;109955;-72
2023/03/27 06:33:47;;;;;;;17.40;10.60;;;;;;;6.00;74.64;98694.92;103507;1254;138911;-69
2023/03/27 06:36:31;;;;;;;14.50;10.10;;;;;;;5.94;74.19;98696.18;103117;1256;97001;-69
2023/03/27 06:39:01;;;;;;;16.50;10.10;;;;;;;5.90;73.95;98703.05;103044;1256;138125;-69
2023/03/27 06:41:29;;;;;;;21.30;9.60;;;;;;;5.88;73.76;98703.27;103623;1258;96480;-69
2023/03/27 06:44:08;;;;;;;17.80;9.40;;;;;;;5.89;73.84;98704.98;103207;1258;109414;-68
2023/03/27 06:46:55;;;;;;;20.30;9.60;;;;;;;5.93;73.42;98710.86;103074;1254;137859;-69
2023/03/27 06:49:37;;;;;;;17.10;9.40;;;;;;;5.99;73.38;98715.48;103153;1256;96460;-69
2023/03/27 06:52:10;;;;;;;18.90;9.00;;;;;;;6.05;73.36;98718.02;102992;1255;137798;-69
2023/03/27 06:54:38;;;;;;;13.50;8.30;;;;;;;6.15;73.28;98720.91;103107;1258;96385;-67
2023/03/27 06:57:05;;;;;;;15.70;8.40;;;;;;;6.26;73.05;98722.36;102969;1255;137752;-65
2023/03/27 06:59:49;;;;;;;19.30;8.00;;;;;;;6.40;72.87;98719.59;103042;1256;106913;-65
2023/03/27 07:02:20;;;;;;;13.80;7.20;;;;;;;6.51;72.29;98721.05;104404;1254;94703;-65
2023/03/27 07:05:09;;;;;;;14.60;6.20;;;;;;;6.64;71.88;98723.45;103053;1255;108414;-62
2023/03/27 07:07:44;;;;;;;12.60;6.30;;;;;;;6.84;71.24;98723.67;103896;1258;95473;-63
2023/03/27 07:10:16;;;;;;;14.40;5.50;;;;;;;7.12;70.84;98722.66;102947;1258;137741;-63
2023/03/27 07:12:48;;;;;;;10.60;5.40;;;;;;;7.51;69.22;98719.10;103667;1256;107893;-64
2023/03/27 07:15:17;;;;;;;12.60;5.00;;;;;;;7.88;68.60;98726.05;104302;1255;137698;-64
2023/03/27 07:17:52;;;;;;;14.30;5.00;;;;;;;8.06;67.72;98728.89;103311;1254;107536;-64
2023/03/27 07:20:20;;;;;;;12.20;5.00;;;;;;;8.22;67.06;98727.08;104423;1255;94586;-65
2023/03/27 07:22:47;;;;;;;12.30;5.30;;;;;;;8.47;66.61;98725.23;103820;1256;137166;-63
2023/03/27 07:25:35;;;;;;;11.60;4.90;;;;;;;8.82;65.82;98729.61;103074;1260;108647;-67
2023/03/27 07:28:05;;;;;;;9.90;4.70;;;;;;;9.24;64.92;98729.38;103160;1254;137633;-66
2023/03/27 07:30:33;;;;;;;10.40;5.30;;;;;;;9.79;64.32;98734.34;103610;1254;108555;-65
2023/03/27 07:33:11;;;;;;;11.00;4.90;;;;;;;10.57;63.23;98740.02;102961;1256;137425;-66
2023/03/27 07:35:51;;;;;;;12.20;5.40;;;;;;;11.32;61.89;98738.11;103099;1256;110723;-66
2023/03/27 07:38:45;;;;;;;10.10;4.90;;;;;;;11.78;61.21;98736.39;102876;1258;108839;-68
2023/03/27 07:41:22;;;;;;;10.70;5.10;;;;;;;12.65;59.98;98737.73;103099;1256;96543;-67
2023/03/27 07:44:10;;;;;;;10.80;5.20;;;;;;;13.06;57.71;98731.36;103078;1255;108704;-65
2023/03/27 07:46:44;;;;;;;7.50;4.10;;;;;;;12.93;57.12;98739.06;103015;1258;137708;-66
2023/03/27 07:49:12;;;;;;;10.30;4.20;;;;;;;12.64;55.82;98742.15;103048;1261;110089;-65
2023/03/27 07:51:40;;;;;;;8.10;3.70;;;;;;;12.37;55.54;98748.61;102967;1256;138884;-66
2023/03/27 07:54:12;;;;;;;13.10;3.70;;;;;;;12.04;55.42;98750.46;103065;1260;96521;-68
2023/03/27 07:56:40;;;;;;;8.20;3.50;;;;;;;11.87;55.64;98748.57;103092;1258;109712;-67
2023/03/27 07:59:27;;;;;;;11.90;3.60;;;;;;;11.88;55.33;98749.06;103095;1256;96851;-66
2023/03/27 08:01:56;;;;;;;8.80;3.30;;;;;;;11.79;55.17;98755.66;103075;1258;110505;-66
2023/03/27 08:04:26;;;;;;;7.80;3.60;;;;;;;11.62;55.07;98758.62;103045;1258;137291;-66
2023/03/27 08:07:06;;;;;;;8.20;3.40;;;;;;;11.55;54.99;98764.27;103887;1256;96515;-66
2023/03/27 08:09:35;;;;;;;8.40;3.70;;;;;;;11.53;55.03;98766.11;102975;1260;137563;-65
2023/03/27 08:12:02;;;;;;;10.30;3.60;;;;;;;11.58;54.81;98768.80;103043;1254;96360;-66
2023/03/27 08:14:29;;;;;;;8.80;3.50;;;;;;;11.60;54.54;98773.50;103076;1255;110221;-66
2023/03/27 08:16:59;;;;;;;8.30;3.30;;;;;;;11.55;54.33;98773.30;102964;1258;137575;-66
2023/03/27 08:19:41;;;;;;;6.70;3.20;;;;;;;11.17;53.67;98778.13;103148;1256;96442;-66
2023/03/27 08:22:09;;;;;;;6.70;3.10;;;;;;;10.80;53.99;98778.54;103071;1256;137395;-65
2023/03/27 08:24:56;;;;;;;;;;;;;;;10.53;54.39;98781.93;103136;1258;96442;-64
2023/03/27 08:27:24;;;;;;;5.60;2.90;;;;;;;10.39;54.44;98788.31;103506;1255;126531;-65
2023/03/27 08:29:52;;;;;;;7.30;2.90;;;;;;;10.31;54.76;98793.79;103713;1260;107330;-64
2023/03/27 08:32:19;;;;;;;5.60;2.80;;;;;;;10.28;54.83;98793.23;102785;1261;137942;-66
2023/03/27 08:34:47;;;;;;;6.70;3.10;;;;;;;10.09;53.99;98799.23;103174;1255;107664;-65
2023/03/27 08:37:18;;;;;;;7.40;3.10;;;;;;;9.86;54.04;98804.48;103069;1258;96458;-65
2023/03/27 08:40:12;;;;;;;5.10;2.40;;;;;;;9.49;54.40;98808.09;102980;1257;137045;-66
2023/03/27 08:42:43;;;;;;;5.20;2.70;;;;;;;9.22;54.99;98814.32;103147;1257;107139;-67
2023/03/27 08:45:19;;;;;;;7.10;3.00;;;;;;;8.99;55.09;98818.73;102770;1256;137163;-65
2023/03/27 08:47:56;;;;;;;5.20;2.50;;;;;;;8.79;55.24;98823.17;104283;1255;108351;-66
2023/03/27 08:50:33;;;;;;;5.60;2.70;;;;;;;8.63;55.68;98831.55;103012;1256;137297;-65
2023/03/27 08:53:27;;;;;;;7.40;2.80;;;;;;;8.63;56.12;98830.02;103142;1256;111087;-65
2023/03/27 08:55:57;;;;;;;5.30;2.30;;;;;;;8.81;56.29;98831.73;102879;1256;107584;-65
2023/03/27 08:58:34;;;;;;;5.00;2.70;;;;;;;8.90;55.66;98831.48;103025;1255;96408;-67
2023/03/27 09:01:28;;;;;;;6.00;2.40;;;;;;;8.84;55.70;98834.70;102987;1260;107146;-66
2023/03/27 09:04:06;;;;;;;6.00;3.00;;;;;;;8.72;55.56;98837.18;102902;1261;137230;-65
2023/03/27 09:06:41;;;;;;;6.10;2.60;;;;;;;8.56;55.51;98839.70;103547;1261;110038;-66
2023/03/27 09:09:21;;;;;;;5.30;2.80;;;;;;;8.36;55.84;98839.71;103496;1260;137184;-64
2023/03/27 09:12:00;;;;;;;8.90;2.80;;;;;;;8.19;55.86;98843.25;103030;1260;96467;-64
2023/03/27 09:14:36;;;;;;;4.30;2.40;;;;;;;8.00;55.90;98839.40;104259;1256;137177;-66
2023/03/27 09:17:11;;;;;;;6.70;3.30;;;;;;;7.82;56.20;98842.42;104381;1256;94765;-66
2023/03/27 09:19:47;;;;;;;6.40;2.50;;;;;;;7.69;56.56;98845.10;103278;1256;109577;-65
2023/03/27 09:22:22;;;;;;;5.00;3.00;;;;;;;7.62;56.59;98842.97;102934;1261;136724;-65
2023/03/27 09:25:23;;;;;;;7.20;2.70;;;;;;;7.51;56.55;98854.99;102490;1268;96521;-65
2023/03/27 09:28:19;;;;;;;5.00;2.40;;;;;;;7.44;56.81;98862.40;103601;1256;137317;-68
2023/03/27 09:30:53;;;;;;;7.10;3.10;;;;;;;7.37;57.01;98869.61;102994;1257;96473;-66
2023/03/27 09:33:26;;;;;;;12.30;3.30;;;;;;;7.34;57.35;98876.98;103652;1255;137516;-65
2023/03/27 09:35:53;;;;;;;7.00;2.80;;;;;;;7.32;57.21;98878.27;102933;1260;109680;-66
2023/03/27 09:38:28;;;;;;;7.60;2.70;;;;;;;7.34;57.24;98876.67;102920;1259;138157;-66
2023/03/27 09:41:00;;;;;;;5.70;2.80;;;;;;;7.29;57.06;98884.27;103091;1261;107178;-66
2023/03/27 09:43:38;;;;;;;9.20;2.70;;;;;;;7.28;56.93;98888.11;103553;1261;96461;-66
2023/03/27 09:46:07;;;;;;;6.80;2.90;;;;;;;7.25;56.50;98886.54;103031;1261;137084;-66
2023/03/27 09:48:43;;;;;;;4.40;2.40;;;;;;;7.15;56.48;98882.44;103232;1261;107600;-67
2023/03/27 09:51:44;;;;;;;2.90;2.30;;;;;;;6.98;55.95;98887.23;102974;1259;136959;-66
2023/03/27 09:54:27;;;;;;;5.20;3.30;;;;;;;6.83;56.30;98890.77;102986;1256;108359;-66
2023/03/27 09:57:00;;;;;;;4.00;2.00;;;;;;;6.76;56.38;98892.41;103043;1258;137172;-70
2023/03/27 09:59:31;;;;;;;6.60;3.10;;;;;;;6.80;56.44;98895.58;102948;1262;111086;-71
2023/03/27 10:02:25;;;;;;;7.60;2.90;;;;;;;6.80;56.02;98896.92;102913;1256;137134;-68
2023/03/27 10:05:21;;;;;;;7.70;2.50;;;;;;;6.72;56.18;98902.09;103031;1260;96627;-69
2023/03/27 10:08:30;;;;;;;4.10;2.60;;;;;;;6.65;56.06;98896.82;102979;1260;137379;-68
2023/03/27 10:11:06;;;;;;;;;;;;;;;6.50;55.68;98903.96;103639;1256;96461;-68
2023/03/27 10:13:49;;;;;;;4.50;2.60;;;;;;;6.40;55.88;98913.48;103032;1262;111704;-67
2023/03/27 10:16:26;;;;;;;5.60;2.30;;;;;;;6.32;56.10;98914.78;103446;1256;108431;-67
2023/03/27 10:19:23;;;;;;;5.50;2.70;;;;;;;6.30;56.18;98921.95;103190;1260;96337;-67
2023/03/27 10:22:18;;;;;;;4.60;2.30;;;;;;;6.29;56.15;98919.23;103036;1261;136956;-67
2023/03/27 10:25:01;;;;;;;5.40;2.80;;;;;;;6.26;56.07;98915.16;103210;1261;96459;-68
2023/03/27 10:27:52;;;;;;;6.00;2.80;;;;;;;6.25;55.96;98909.19;102768;1259;136956;-67
2023/03/27 10:30:33;;;;;;;5.50;2.30;;;;;;;6.19;55.58;98908.17;102979;1259;107369;-65
2023/03/27 10:33:28;;;;;;;4.80;2.80;;;;;;;6.20;55.83;98915.39;103076;1259;136992;-66
2023/03/27 10:36:23;;;;;;;4.10;2.40;;;;;;;6.34;56.06;98916.98;103050;1260;108668;-65
2023/03/27 10:38:58;;;;;;;3.00;1.90;;;;;;;6.43;55.75;98918.52;102924;1257;136997;-65
2023/03/27 10:41:52;;;;;;;4.50;2.10;;;;;;;6.51;55.47;98924.63;103015;1257;110075;-65
2023/03/27 10:44:26;;;;;;;4.10;2.10;;;;;;;6.60;54.75;98923.95;102815;1261;137192;-65
2023/03/27 10:46:58;;;;;;;7.20;2.10;;;;;;;6.64;54.47;98917.56;103177;1259;96519;-64
2023/03/27 10:49:41;;;;;;;4.10;2.20;;;;;;;6.70;53.78;98923.40;103022;1258;107542;-65
2023/03/27 10:52:38;;;;;;;5.00;2.40;;;;;;;6.67;53.17;98918.35;103109;1262;96558;-67
2023/03/27 10:55:43;;;;;;;3.20;2.30;;;;;;;6.64;53.52;98928.30;103187;1260;108940;-66
2023/03/27 10:58:37;;;;;;;5.90;2.60;;;;;;;6.70;53.63;98930.14;103002;1255;110101;-66
2023/03/27 11:01:31;;;;;;;3.20;2.20;;;;;;;6.77;53.65;98926.77;104269;1256;94615;-67
2023/03/27 11:04:24;;;;;;;4.20;2.30;;;;;;;6.74;53.15;98923.79;102968;1261;136905;-67
2023/03/27 11:07:19;;;;;;;4.50;2.60;;;;;;;6.70;52.74;98928.77;103143;1260;96339;-68
2023/03/27 11:09:57;;;;;;;5.00;2.70;;;;;;;6.74;52.92;98932.60;103392;1261;137027;-70
2023/03/27 11:12:32;;;;;;;4.30;2.70;;;;;;;6.89;53.14;98935.46;102977;1257;107138;-70
2023/03/27 11:15:09;;;;;;;4.70;2.80;;;;;;;7.02;53.30;98939.98;102876;1258;137092;-69
2023/03/27 11:17:54;;;;;;;3.00;2.40;;;;;;;7.14;52.78;98939.17;103175;1258;107387;-71
2023/03/27 11:20:42;;;;;;;5.40;2.80;;;;;;;7.14;52.54;98932.93;102989;1260;137682;-72
2023/03/27 11:23:24;;;;;;;4.20;2.70;;;;;;;7.12;52.35;98936.46;103012;1259;110654;-71
2023/03/27 11:26:24;;;;;;;6.10;2.80;;;;;;;7.13;52.22;98936.26;102903;1261;137503;-70
2023/03/27 11:29:04;;;;;;;5.80;2.40;;;;;;;7.14;52.15;98938.45;102997;1259;96529;-69
2023/03/27 11:31:44;;;;;;;4.10;2.70;;;;;;;7.10;52.00;98939.69;103049;1261;108270;-70
2023/03/27 11:34:37;;;;;;;3.30;2.20;;;;;;;7.05;51.60;98940.73;102862;1261;137058;-70
2023/03/27 11:37:45;;;;;;;3.00;2.00;;;;;;;7.01;51.19;98938.30;102420;1261;1003299;-70
2023/03/27 11:40:19;;;;;;;5.70;2.60;;;;;;;7.02;51.20;98935.50;103238;1257;137337;-66
2023/03/27 11:42:49;;;;;;;4.30;2.30;;;;;;;7.02;51.22;98937.93;103398;1257;96453;-65
2023/03/27 11:45:22;;;;;;;6.10;2.60;;;;;;;7.01;51.40;98938.48;103035;1256;136819;-66
2023/03/27 11:48:08;;;;;;;4.70;2.40;;;;;;;7.03;51.32;98938.04;103030;1264;96504;-66
2023/03/27 11:50:53;;;;;;;5.00;2.60;;;;;;;7.14;51.63;98933.66;102948;1261;137602;-65
2023/03/27 11:53:42;;;;;;;5.20;2.70;;;;;;;7.38;51.59;98931.98;103115;1261;106392;-65
2023/03/27 11:56:24;;;;;;;4.90;2.50;;;;;;;7.67;51.41;98930.11;103015;1262;95133;-65
2023/03/27 11:59:12;;;;;;;5.20;2.40;;;;;;;7.91;51.00;98928.41;103245;1260;107542;-66
2023/03/27 12:01:53;;;;;;;4.40;2.60;;;;;;;7.99;49.97;98929.11;103207;1260;96457;-65